sensor_id;sensor_type;location;lat;lon;timestamp;P1;durP1;ratioP1;P2;durP2;ratioP2
44189;SDS011;29856;52.144;5.430;2023-02-28T00:01:30;10.55;;;3.88;;
44189;SDS011;29856;52.144;5.430;2023-02-28T00:03:56;5.72;;;3.50;;
44189;SDS011;29856;52.144;5.430;2023-02-28T00:06:22;7.38;;;3.70;;
44189;SDS011;29856;52.144;5.430;2023-02-28T00:08:48;9.18;;;3.67;;
44189;SDS011;29856;52.144;5.430;2023-02-28T00:11:14;10.02;;;3.85;;
44189;SDS011;29856;52.144;5.430;2023-02-28T00:13:41;8.95;;;4.15;;
44189;SDS011;29856;52.144;5.430;2023-02-28T00:16:09;10.02;;;3.95;;
44189;SDS011;29856;52.144;5.430;2023-02-28T00:18:36;7.75;;;4.05;;
44189;SDS011;29856;52.144;5.430;2023-02-28T00:21:02;10.40;;;4.03;;
44189;SDS011;29856;52.144;5.430;2023-02-28T00:23:28;11.05;;;4.07;;
44189;SDS011;29856;52.144;5.430;2023-02-28T00:25:53;6.65;;;3.53;;
44189;SDS011;29856;52.144;5.430;2023-02-28T00:28:19;8.25;;;3.70;;
44189;SDS011;29856;52.144;5.430;2023-02-28T00:30:45;8.80;;;3.28;;
44189;SDS011;29856;52.144;5.430;2023-02-28T00:33:11;11.27;;;4.10;;
44189;SDS011;29856;52.144;5.430;2023-02-28T00:35:37;6.45;;;3.13;;
44189;SDS011;29856;52.144;5.430;2023-02-28T00:38:02;8.65;;;3.15;;
44189;SDS011;29856;52.144;5.430;2023-02-28T00:40:28;5.63;;;2.75;;
44189;SDS011;29856;52.144;5.430;2023-02-28T00:42:54;9.73;;;3.28;;
44189;SDS011;29856;52.144;5.430;2023-02-28T00:45:19;5.32;;;2.72;;
44189;SDS011;29856;52.144;5.430;2023-02-28T00:47:45;9.82;;;2.78;;
44189;SDS011;29856;52.144;5.430;2023-02-28T00:50:10;6.70;;;2.75;;
44189;SDS011;29856;52.144;5.430;2023-02-28T00:52:36;5.10;;;3.10;;
44189;SDS011;29856;52.144;5.430;2023-02-28T00:55:01;4.40;;;2.67;;
44189;SDS011;29856;52.144;5.430;2023-02-28T00:57:27;7.43;;;2.47;;
44189;SDS011;29856;52.144;5.430;2023-02-28T00:59:52;4.88;;;2.45;;
44189;SDS011;29856;52.144;5.430;2023-02-28T01:02:18;6.30;;;2.70;;
44189;SDS011;29856;52.144;5.430;2023-02-28T01:04:43;7.35;;;3.08;;
44189;SDS011;29856;52.144;5.430;2023-02-28T01:07:08;5.47;;;3.08;;
44189;SDS011;29856;52.144;5.430;2023-02-28T01:09:34;7.47;;;2.85;;
44189;SDS011;29856;52.144;5.430;2023-02-28T01:11:59;6.90;;;3.13;;
44189;SDS011;29856;52.144;5.430;2023-02-28T01:14:25;5.13;;;3.05;;
44189;SDS011;29856;52.144;5.430;2023-02-28T01:16:51;4.88;;;2.70;;
44189;SDS011;29856;52.144;5.430;2023-02-28T01:19:16;6.85;;;3.35;;
44189;SDS011;29856;52.144;5.430;2023-02-28T01:21:41;6.15;;;2.90;;
44189;SDS011;29856;52.144;5.430;2023-02-28T01:24:07;8.73;;;3.33;;
44189;SDS011;29856;52.144;5.430;2023-02-28T01:26:32;8.48;;;2.78;;
44189;SDS011;29856;52.144;5.430;2023-02-28T01:28:58;5.53;;;2.78;;
44189;SDS011;29856;52.144;5.430;2023-02-28T01:31:24;6.18;;;2.97;;
44189;SDS011;29856;52.144;5.430;2023-02-28T01:33:49;5.18;;;2.97;;
44189;SDS011;29856;52.144;5.430;2023-02-28T01:36:18;4.85;;;2.88;;
44189;SDS011;29856;52.144;5.430;2023-02-28T01:38:46;3.97;;;2.63;;
44189;SDS011;29856;52.144;5.430;2023-02-28T01:41:28;4.97;;;2.40;;
44189;SDS011;29856;52.144;5.430;2023-02-28T01:44:04;9.90;;;3.22;;
44189;SDS011;29856;52.144;5.430;2023-02-28T01:46:49;6.57;;;3.10;;
44189;SDS011;29856;52.144;5.430;2023-02-28T01:49:15;9.10;;;2.80;;
44189;SDS011;29856;52.144;5.430;2023-02-28T01:51:49;5.97;;;2.83;;
44189;SDS011;29856;52.144;5.430;2023-02-28T01:54:18;5.40;;;2.83;;
44189;SDS011;29856;52.144;5.430;2023-02-28T01:56:48;6.15;;;2.80;;
44189;SDS011;29856;52.144;5.430;2023-02-28T01:59:22;6.60;;;2.60;;
44189;SDS011;29856;52.144;5.430;2023-02-28T02:02:08;9.93;;;2.97;;
44189;SDS011;29856;52.144;5.430;2023-02-28T02:04:37;5.15;;;2.63;;
44189;SDS011;29856;52.144;5.430;2023-02-28T02:07:16;8.50;;;3.10;;
44189;SDS011;29856;52.144;5.430;2023-02-28T02:09:42;6.13;;;3.10;;
44189;SDS011;29856;52.144;5.430;2023-02-28T02:12:18;5.65;;;2.65;;
44189;SDS011;29856;52.144;5.430;2023-02-28T02:15:16;7.30;;;3.17;;
44189;SDS011;29856;52.144;5.430;2023-02-28T02:17:51;8.93;;;3.30;;
44189;SDS011;29856;52.144;5.430;2023-02-28T02:20:27;9.05;;;3.55;;
44189;SDS011;29856;52.144;5.430;2023-02-28T02:23:32;5.93;;;3.40;;
44189;SDS011;29856;52.144;5.430;2023-02-28T02:34:02;6.25;;;3.05;;
44189;SDS011;29856;52.144;5.430;2023-02-28T02:36:50;6.38;;;3.10;;
44189;SDS011;29856;52.144;5.430;2023-02-28T02:39:29;5.25;;;3.00;;
44189;SDS011;29856;52.144;5.430;2023-02-28T02:42:01;7.38;;;3.50;;
44189;SDS011;29856;52.144;5.430;2023-02-28T02:44:36;6.50;;;3.13;;
44189;SDS011;29856;52.144;5.430;2023-02-28T02:47:11;7.07;;;3.42;;
44189;SDS011;29856;52.144;5.430;2023-02-28T02:49:42;6.55;;;3.28;;
44189;SDS011;29856;52.144;5.430;2023-02-28T02:52:10;9.85;;;3.72;;
44189;SDS011;29856;52.144;5.430;2023-02-28T02:54:43;4.10;;;2.53;;
44189;SDS011;29856;52.144;5.430;2023-02-28T02:57:13;5.55;;;3.17;;
44189;SDS011;29856;52.144;5.430;2023-02-28T02:59:53;7.85;;;3.17;;
44189;SDS011;29856;52.144;5.430;2023-02-28T03:02:20;6.95;;;2.80;;
44189;SDS011;29856;52.144;5.430;2023-02-28T03:04:56;8.18;;;3.15;;
44189;SDS011;29856;52.144;5.430;2023-02-28T03:07:25;7.68;;;3.17;;
44189;SDS011;29856;52.144;5.430;2023-02-28T03:09:52;10.18;;;3.20;;
44189;SDS011;29856;52.144;5.430;2023-02-28T03:12:18;7.82;;;3.13;;
44189;SDS011;29856;52.144;5.430;2023-02-28T03:17:40;6.85;;;3.22;;
44189;SDS011;29856;52.144;5.430;2023-02-28T03:20:34;7.30;;;3.13;;
44189;SDS011;29856;52.144;5.430;2023-02-28T03:23:16;9.60;;;3.67;;
44189;SDS011;29856;52.144;5.430;2023-02-28T03:28:34;9.73;;;3.92;;
44189;SDS011;29856;52.144;5.430;2023-02-28T03:31:10;8.52;;;3.28;;
44189;SDS011;29856;52.144;5.430;2023-02-28T03:33:45;5.53;;;2.70;;
44189;SDS011;29856;52.144;5.430;2023-02-28T03:36:17;7.75;;;3.38;;
44189;SDS011;29856;52.144;5.430;2023-02-28T03:38:46;7.32;;;3.40;;
44189;SDS011;29856;52.144;5.430;2023-02-28T03:41:21;8.60;;;3.10;;
44189;SDS011;29856;52.144;5.430;2023-02-28T03:43:56;7.95;;;3.35;;
44189;SDS011;29856;52.144;5.430;2023-02-28T03:46:26;7.05;;;3.35;;
44189;SDS011;29856;52.144;5.430;2023-02-28T03:48:56;6.70;;;3.22;;
44189;SDS011;29856;52.144;5.430;2023-02-28T03:51:29;9.07;;;3.35;;
44189;SDS011;29856;52.144;5.430;2023-02-28T03:53:57;6.88;;;3.00;;
44189;SDS011;29856;52.144;5.430;2023-02-28T03:56:39;7.32;;;3.30;;
44189;SDS011;29856;52.144;5.430;2023-02-28T03:59:13;5.63;;;3.20;;
44189;SDS011;29856;52.144;5.430;2023-02-28T04:01:46;9.82;;;3.33;;
44189;SDS011;29856;52.144;5.430;2023-02-28T04:04:14;4.70;;;2.65;;
44189;SDS011;29856;52.144;5.430;2023-02-28T04:06:40;5.10;;;3.15;;
44189;SDS011;29856;52.144;5.430;2023-02-28T04:09:07;5.00;;;2.58;;
44189;SDS011;29856;52.144;5.430;2023-02-28T04:14:04;8.90;;;4.03;;
44189;SDS011;29856;52.144;5.430;2023-02-28T04:16:30;4.43;;;2.85;;
44189;SDS011;29856;52.144;5.430;2023-02-28T04:18:57;5.93;;;2.58;;
44189;SDS011;29856;52.144;5.430;2023-02-28T04:21:22;5.72;;;2.50;;
44189;SDS011;29856;52.144;5.430;2023-02-28T04:23:48;5.18;;;2.75;;
44189;SDS011;29856;52.144;5.430;2023-02-28T04:26:13;4.55;;;2.70;;
44189;SDS011;29856;52.144;5.430;2023-02-28T04:28:39;4.18;;;2.67;;
44189;SDS011;29856;52.144;5.430;2023-02-28T04:31:04;5.47;;;2.33;;
44189;SDS011;29856;52.144;5.430;2023-02-28T04:33:30;4.05;;;2.10;;
44189;SDS011;29856;52.144;5.430;2023-02-28T04:36:01;4.20;;;2.40;;
44189;SDS011;29856;52.144;5.430;2023-02-28T04:38:37;4.85;;;2.10;;
44189;SDS011;29856;52.144;5.430;2023-02-28T04:41:03;6.50;;;2.63;;
44189;SDS011;29856;52.144;5.430;2023-02-28T04:43:30;4.95;;;2.25;;
44189;SDS011;29856;52.144;5.430;2023-02-28T04:45:56;2.88;;;2.28;;
44189;SDS011;29856;52.144;5.430;2023-02-28T04:48:23;5.70;;;2.33;;
44189;SDS011;29856;52.144;5.430;2023-02-28T04:50:49;3.20;;;2.53;;
44189;SDS011;29856;52.144;5.430;2023-02-28T04:53:15;6.05;;;2.30;;
44189;SDS011;29856;52.144;5.430;2023-02-28T04:55:41;3.60;;;2.38;;
44189;SDS011;29856;52.144;5.430;2023-02-28T04:58:06;4.50;;;2.58;;
44189;SDS011;29856;52.144;5.430;2023-02-28T05:00:32;4.00;;;2.75;;
44189;SDS011;29856;52.144;5.430;2023-02-28T05:02:57;3.20;;;2.15;;
44189;SDS011;29856;52.144;5.430;2023-02-28T05:05:23;4.13;;;2.65;;
44189;SDS011;29856;52.144;5.430;2023-02-28T05:07:48;4.68;;;2.00;;
44189;SDS011;29856;52.144;5.430;2023-02-28T05:10:13;4.10;;;2.10;;
44189;SDS011;29856;52.144;5.430;2023-02-28T05:12:39;5.82;;;2.53;;
44189;SDS011;29856;52.144;5.430;2023-02-28T05:15:05;6.78;;;2.17;;
44189;SDS011;29856;52.144;5.430;2023-02-28T05:17:31;3.05;;;2.13;;
44189;SDS011;29856;52.144;5.430;2023-02-28T05:19:56;3.40;;;2.47;;
44189;SDS011;29856;52.144;5.430;2023-02-28T05:22:22;5.60;;;2.95;;
44189;SDS011;29856;52.144;5.430;2023-02-28T05:24:47;4.20;;;2.90;;
44189;SDS011;29856;52.144;5.430;2023-02-28T05:27:13;4.53;;;2.00;;
44189;SDS011;29856;52.144;5.430;2023-02-28T05:29:38;3.97;;;1.90;;
44189;SDS011;29856;52.144;5.430;2023-02-28T05:32:04;4.85;;;2.55;;
44189;SDS011;29856;52.144;5.430;2023-02-28T05:34:29;3.88;;;2.20;;
44189;SDS011;29856;52.144;5.430;2023-02-28T05:36:55;5.38;;;2.67;;
44189;SDS011;29856;52.144;5.430;2023-02-28T05:39:20;2.75;;;2.10;;
44189;SDS011;29856;52.144;5.430;2023-02-28T05:41:45;3.22;;;2.17;;
44189;SDS011;29856;52.144;5.430;2023-02-28T05:44:11;3.92;;;2.20;;
44189;SDS011;29856;52.144;5.430;2023-02-28T05:46:36;6.85;;;3.20;;
44189;SDS011;29856;52.144;5.430;2023-02-28T05:49:03;1.95;;;1.75;;
44189;SDS011;29856;52.144;5.430;2023-02-28T05:51:29;5.63;;;2.05;;
44189;SDS011;29856;52.144;5.430;2023-02-28T05:53:54;4.30;;;2.20;;
44189;SDS011;29856;52.144;5.430;2023-02-28T05:56:23;6.38;;;2.58;;
44189;SDS011;29856;52.144;5.430;2023-02-28T05:58:48;4.03;;;2.45;;
44189;SDS011;29856;52.144;5.430;2023-02-28T06:01:47;3.75;;;2.10;;
44189;SDS011;29856;52.144;5.430;2023-02-28T06:04:09;4.95;;;2.08;;
44189;SDS011;29856;52.144;5.430;2023-02-28T06:06:35;6.18;;;2.80;;
44189;SDS011;29856;52.144;5.430;2023-02-28T06:09:01;5.90;;;2.38;;
44189;SDS011;29856;52.144;5.430;2023-02-28T06:11:27;6.40;;;2.10;;
44189;SDS011;29856;52.144;5.430;2023-02-28T06:13:59;3.83;;;2.20;;
44189;SDS011;29856;52.144;5.430;2023-02-28T06:16:25;6.43;;;2.45;;
44189;SDS011;29856;52.144;5.430;2023-02-28T06:18:52;4.05;;;2.30;;
44189;SDS011;29856;52.144;5.430;2023-02-28T06:21:17;4.22;;;2.20;;
44189;SDS011;29856;52.144;5.430;2023-02-28T06:23:43;4.18;;;2.40;;
44189;SDS011;29856;52.144;5.430;2023-02-28T06:26:08;2.80;;;2.40;;
44189;SDS011;29856;52.144;5.430;2023-02-28T06:28:34;4.90;;;2.13;;
44189;SDS011;29856;52.144;5.430;2023-02-28T06:30:59;10.32;;;2.67;;
44189;SDS011;29856;52.144;5.430;2023-02-28T06:33:38;4.30;;;2.10;;
44189;SDS011;29856;52.144;5.430;2023-02-28T06:36:05;4.28;;;2.22;;
44189;SDS011;29856;52.144;5.430;2023-02-28T06:38:31;6.10;;;2.50;;
44189;SDS011;29856;52.144;5.430;2023-02-28T06:40:57;8.63;;;3.28;;
44189;SDS011;29856;52.144;5.430;2023-02-28T06:43:24;3.63;;;2.70;;
44189;SDS011;29856;52.144;5.430;2023-02-28T06:45:50;6.35;;;2.90;;
44189;SDS011;29856;52.144;5.430;2023-02-28T06:48:19;3.88;;;3.00;;
44189;SDS011;29856;52.144;5.430;2023-02-28T06:50:45;9.20;;;2.90;;
44189;SDS011;29856;52.144;5.430;2023-02-28T06:53:10;6.25;;;3.00;;
44189;SDS011;29856;52.144;5.430;2023-02-28T06:55:37;4.80;;;2.72;;
44189;SDS011;29856;52.144;5.430;2023-02-28T06:58:03;5.63;;;2.92;;
44189;SDS011;29856;52.144;5.430;2023-02-28T07:00:28;4.50;;;3.00;;
44189;SDS011;29856;52.144;5.430;2023-02-28T07:02:53;6.60;;;3.00;;
44189;SDS011;29856;52.144;5.430;2023-02-28T07:05:19;4.50;;;3.40;;
44189;SDS011;29856;52.144;5.430;2023-02-28T07:07:44;6.88;;;3.20;;
44189;SDS011;29856;52.144;5.430;2023-02-28T07:10:10;8.20;;;4.45;;
44189;SDS011;29856;52.144;5.430;2023-02-28T07:12:36;6.82;;;3.30;;
44189;SDS011;29856;52.144;5.430;2023-02-28T07:15:02;7.15;;;3.17;;
44189;SDS011;29856;52.144;5.430;2023-02-28T07:17:29;7.00;;;3.40;;
44189;SDS011;29856;52.144;5.430;2023-02-28T07:19:55;8.68;;;3.30;;
44189;SDS011;29856;52.144;5.430;2023-02-28T07:22:20;5.00;;;3.10;;
44189;SDS011;29856;52.144;5.430;2023-02-28T07:24:45;5.75;;;2.90;;
44189;SDS011;29856;52.144;5.430;2023-02-28T07:27:11;7.70;;;4.05;;
44189;SDS011;29856;52.144;5.430;2023-02-28T07:29:36;5.22;;;3.00;;
44189;SDS011;29856;52.144;5.430;2023-02-28T07:32:02;6.97;;;2.97;;
44189;SDS011;29856;52.144;5.430;2023-02-28T07:34:27;5.40;;;2.78;;
44189;SDS011;29856;52.144;5.430;2023-02-28T07:36:53;5.10;;;3.33;;
44189;SDS011;29856;52.144;5.430;2023-02-28T07:39:19;6.50;;;3.22;;
44189;SDS011;29856;52.144;5.430;2023-02-28T07:41:45;5.00;;;3.97;;
44189;SDS011;29856;52.144;5.430;2023-02-28T07:44:11;6.72;;;3.67;;
44189;SDS011;29856;52.144;5.430;2023-02-28T07:46:37;5.13;;;3.30;;
44189;SDS011;29856;52.144;5.430;2023-02-28T07:49:03;4.30;;;2.90;;
44189;SDS011;29856;52.144;5.430;2023-02-28T07:51:29;5.40;;;3.03;;
44189;SDS011;29856;52.144;5.430;2023-02-28T07:53:55;7.88;;;3.35;;
44189;SDS011;29856;52.144;5.430;2023-02-28T07:56:21;6.07;;;3.20;;
44189;SDS011;29856;52.144;5.430;2023-02-28T07:58:46;4.82;;;3.20;;
44189;SDS011;29856;52.144;5.430;2023-02-28T08:01:12;7.72;;;3.58;;
44189;SDS011;29856;52.144;5.430;2023-02-28T08:03:38;6.15;;;2.75;;
44189;SDS011;29856;52.144;5.430;2023-02-28T08:06:04;5.97;;;2.97;;
44189;SDS011;29856;52.144;5.430;2023-02-28T08:08:31;5.82;;;3.28;;
44189;SDS011;29856;52.144;5.430;2023-02-28T08:11:03;7.68;;;3.35;;
44189;SDS011;29856;52.144;5.430;2023-02-28T08:13:29;4.63;;;3.08;;
44189;SDS011;29856;52.144;5.430;2023-02-28T08:15:54;3.75;;;2.92;;
44189;SDS011;29856;52.144;5.430;2023-02-28T08:18:21;5.00;;;3.13;;
44189;SDS011;29856;52.144;5.430;2023-02-28T08:20:47;6.03;;;2.75;;
44189;SDS011;29856;52.144;5.430;2023-02-28T08:23:13;5.95;;;2.95;;
44189;SDS011;29856;52.144;5.430;2023-02-28T08:25:39;7.97;;;3.70;;
44189;SDS011;29856;52.144;5.430;2023-02-28T08:28:04;5.15;;;2.97;;
44189;SDS011;29856;52.144;5.430;2023-02-28T08:30:30;4.28;;;3.08;;
44189;SDS011;29856;52.144;5.430;2023-02-28T08:32:55;4.15;;;2.85;;
44189;SDS011;29856;52.144;5.430;2023-02-28T08:35:21;4.65;;;2.90;;
44189;SDS011;29856;52.144;5.430;2023-02-28T08:37:47;6.82;;;2.60;;
44189;SDS011;29856;52.144;5.430;2023-02-28T08:40:13;3.10;;;2.65;;
44189;SDS011;29856;52.144;5.430;2023-02-28T08:42:38;5.10;;;2.90;;
44189;SDS011;29856;52.144;5.430;2023-02-28T08:45:04;5.03;;;2.97;;
44189;SDS011;29856;52.144;5.430;2023-02-28T08:47:30;6.82;;;2.53;;
44189;SDS011;29856;52.144;5.430;2023-02-28T08:49:56;6.55;;;3.05;;
44189;SDS011;29856;52.144;5.430;2023-02-28T08:52:22;3.30;;;2.53;;
44189;SDS011;29856;52.144;5.430;2023-02-28T08:54:47;3.42;;;2.20;;
44189;SDS011;29856;52.144;5.430;2023-02-28T08:57:12;3.80;;;1.80;;
44189;SDS011;29856;52.144;5.430;2023-02-28T08:59:38;5.82;;;2.50;;
44189;SDS011;29856;52.144;5.430;2023-02-28T09:02:03;3.47;;;2.15;;
44189;SDS011;29856;52.144;5.430;2023-02-28T09:04:29;3.40;;;2.17;;
44189;SDS011;29856;52.144;5.430;2023-02-28T09:06:54;4.68;;;1.98;;
44189;SDS011;29856;52.144;5.430;2023-02-28T09:09:20;8.23;;;2.42;;
44189;SDS011;29856;52.144;5.430;2023-02-28T09:11:45;3.67;;;2.22;;
44189;SDS011;29856;52.144;5.430;2023-02-28T09:14:11;3.05;;;2.40;;
44189;SDS011;29856;52.144;5.430;2023-02-28T09:16:36;3.97;;;1.92;;
44189;SDS011;29856;52.144;5.430;2023-02-28T09:19:02;3.00;;;1.80;;
44189;SDS011;29856;52.144;5.430;2023-02-28T09:21:27;1.88;;;1.63;;
44189;SDS011;29856;52.144;5.430;2023-02-28T09:23:53;5.07;;;1.58;;
44189;SDS011;29856;52.144;5.430;2023-02-28T09:26:23;3.15;;;1.63;;
44189;SDS011;29856;52.144;5.430;2023-02-28T09:28:50;3.00;;;1.40;;
44189;SDS011;29856;52.144;5.430;2023-02-28T09:31:17;3.17;;;1.40;;
44189;SDS011;29856;52.144;5.430;2023-02-28T09:33:44;4.97;;;1.88;;
44189;SDS011;29856;52.144;5.430;2023-02-28T09:36:10;3.63;;;1.80;;
44189;SDS011;29856;52.144;5.430;2023-02-28T09:38:35;2.95;;;1.60;;
44189;SDS011;29856;52.144;5.430;2023-02-28T09:41:02;2.42;;;1.25;;
44189;SDS011;29856;52.144;5.430;2023-02-28T09:43:35;1.73;;;1.40;;
44189;SDS011;29856;52.144;5.430;2023-02-28T09:46:13;1.23;;;1.20;;
44189;SDS011;29856;52.144;5.430;2023-02-28T09:49:00;2.00;;;1.30;;
44189;SDS011;29856;52.144;5.430;2023-02-28T09:54:21;1.35;;;1.20;;
44189;SDS011;29856;52.144;5.430;2023-02-28T09:56:51;2.42;;;1.48;;
44189;SDS011;29856;52.144;5.430;2023-02-28T10:05:28;1.30;;;1.20;;
44189;SDS011;29856;52.144;5.430;2023-02-28T10:08:01;3.13;;;1.40;;
44189;SDS011;29856;52.144;5.430;2023-02-28T10:16:13;1.63;;;1.20;;
44189;SDS011;29856;52.144;5.430;2023-02-28T10:18:43;1.60;;;1.20;;
44189;SDS011;29856;52.144;5.430;2023-02-28T10:21:20;1.65;;;1.50;;
44189;SDS011;29856;52.144;5.430;2023-02-28T10:23:59;2.03;;;1.30;;
44189;SDS011;29856;52.144;5.430;2023-02-28T10:26:53;2.05;;;1.48;;
44189;SDS011;29856;52.144;5.430;2023-02-28T10:29:24;2.65;;;1.27;;
44189;SDS011;29856;52.144;5.430;2023-02-28T10:31:50;3.63;;;1.45;;
44189;SDS011;29856;52.144;5.430;2023-02-28T10:34:15;1.60;;;1.30;;
44189;SDS011;29856;52.144;5.430;2023-02-28T10:36:41;2.08;;;1.13;;
44189;SDS011;29856;52.144;5.430;2023-02-28T10:42:24;2.58;;;1.30;;
44189;SDS011;29856;52.144;5.430;2023-02-28T10:47:35;1.88;;;1.20;;
44189;SDS011;29856;52.144;5.430;2023-02-28T10:50:27;1.67;;;1.20;;
44189;SDS011;29856;52.144;5.430;2023-02-28T10:53:16;1.67;;;1.33;;
44189;SDS011;29856;52.144;5.430;2023-02-28T10:55:57;1.20;;;1.10;;
44189;SDS011;29856;52.144;5.430;2023-02-28T10:58:54;1.80;;;1.58;;
44189;SDS011;29856;52.144;5.430;2023-02-28T11:04:18;4.80;;;1.80;;
44189;SDS011;29856;52.144;5.430;2023-02-28T11:06:43;2.40;;;1.67;;
44189;SDS011;29856;52.144;5.430;2023-02-28T11:09:18;1.88;;;1.48;;
44189;SDS011;29856;52.144;5.430;2023-02-28T11:11:46;2.47;;;1.80;;
44189;SDS011;29856;52.144;5.430;2023-02-28T11:14:26;2.33;;;1.33;;
44189;SDS011;29856;52.144;5.430;2023-02-28T11:16:54;2.78;;;1.33;;
44189;SDS011;29856;52.144;5.430;2023-02-28T11:19:28;1.48;;;1.17;;
44189;SDS011;29856;52.144;5.430;2023-02-28T11:22:02;1.50;;;1.20;;
44189;SDS011;29856;52.144;5.430;2023-02-28T11:25:06;1.88;;;1.60;;
44189;SDS011;29856;52.144;5.430;2023-02-28T11:35:26;1.52;;;1.20;;
44189;SDS011;29856;52.144;5.430;2023-02-28T11:37:55;2.88;;;1.30;;
44189;SDS011;29856;52.144;5.430;2023-02-28T11:40:24;2.03;;;1.38;;
44189;SDS011;29856;52.144;5.430;2023-02-28T11:45:43;1.85;;;1.30;;
44189;SDS011;29856;52.144;5.430;2023-02-28T11:48:21;1.63;;;1.27;;
44189;SDS011;29856;52.144;5.430;2023-02-28T11:51:15;2.47;;;1.38;;
44189;SDS011;29856;52.144;5.430;2023-02-28T11:54:05;1.63;;;1.35;;
44189;SDS011;29856;52.144;5.430;2023-02-28T11:57:16;2.47;;;1.40;;
44189;SDS011;29856;52.144;5.430;2023-02-28T12:00:05;1.50;;;1.33;;
44189;SDS011;29856;52.144;5.430;2023-02-28T12:08:15;3.00;;;1.25;;
44189;SDS011;29856;52.144;5.430;2023-02-28T12:13:57;1.52;;;1.13;;
44189;SDS011;29856;52.144;5.430;2023-02-28T12:22:21;1.40;;;1.30;;
44189;SDS011;29856;52.144;5.430;2023-02-28T12:25:02;2.08;;;1.13;;
44189;SDS011;29856;52.144;5.430;2023-02-28T12:33:12;2.83;;;1.48;;
44189;SDS011;29856;52.144;5.430;2023-02-28T12:35:45;3.10;;;1.30;;
44189;SDS011;29856;52.144;5.430;2023-02-28T12:38:31;2.63;;;1.30;;
44189;SDS011;29856;52.144;5.430;2023-02-28T12:41:04;3.17;;;1.27;;
44189;SDS011;29856;52.144;5.430;2023-02-28T12:43:38;1.52;;;1.30;;
44189;SDS011;29856;52.144;5.430;2023-02-28T12:46:33;3.00;;;1.23;;
44189;SDS011;29856;52.144;5.430;2023-02-28T12:49:00;2.67;;;1.30;;
44189;SDS011;29856;52.144;5.430;2023-02-28T12:51:31;4.93;;;1.50;;
44189;SDS011;29856;52.144;5.430;2023-02-28T12:59:01;3.10;;;1.42;;
44189;SDS011;29856;52.144;5.430;2023-02-28T13:09:57;3.80;;;1.65;;
44189;SDS011;29856;52.144;5.430;2023-02-28T13:12:25;3.35;;;1.75;;
44189;SDS011;29856;52.144;5.430;2023-02-28T13:14:51;1.67;;;1.30;;
44189;SDS011;29856;52.144;5.430;2023-02-28T13:17:52;1.50;;;1.27;;
44189;SDS011;29856;52.144;5.430;2023-02-28T13:20:23;1.75;;;1.60;;
44189;SDS011;29856;52.144;5.430;2023-02-28T13:22:59;2.90;;;1.63;;
44189;SDS011;29856;52.144;5.430;2023-02-28T13:28:11;3.05;;;1.40;;
44189;SDS011;29856;52.144;5.430;2023-02-28T13:35:44;2.28;;;1.60;;
44189;SDS011;29856;52.144;5.430;2023-02-28T13:38:54;2.97;;;1.60;;
44189;SDS011;29856;52.144;5.430;2023-02-28T13:44:04;2.50;;;1.50;;
44189;SDS011;29856;52.144;5.430;2023-02-28T13:46:31;3.30;;;1.52;;
44189;SDS011;29856;52.144;5.430;2023-02-28T13:51:44;2.83;;;1.53;;
44189;SDS011;29856;52.144;5.430;2023-02-28T14:05:15;2.45;;;1.60;;
44189;SDS011;29856;52.144;5.430;2023-02-28T14:07:49;2.58;;;1.85;;
44189;SDS011;29856;52.144;5.430;2023-02-28T14:10:22;2.92;;;1.63;;
44189;SDS011;29856;52.144;5.430;2023-02-28T14:13:02;3.53;;;1.88;;
44189;SDS011;29856;52.144;5.430;2023-02-28T14:20:49;2.13;;;1.85;;
44189;SDS011;29856;52.144;5.430;2023-02-28T14:23:38;2.15;;;1.55;;
44189;SDS011;29856;52.144;5.430;2023-02-28T14:28:50;2.92;;;1.42;;
44189;SDS011;29856;52.144;5.430;2023-02-28T14:31:25;2.03;;;1.60;;
44189;SDS011;29856;52.144;5.430;2023-02-28T14:34:21;2.95;;;1.90;;
44189;SDS011;29856;52.144;5.430;2023-02-28T14:36:55;3.60;;;1.60;;
44189;SDS011;29856;52.144;5.430;2023-02-28T14:39:27;1.92;;;1.42;;
44189;SDS011;29856;52.144;5.430;2023-02-28T14:41:53;2.53;;;1.52;;
44189;SDS011;29856;52.144;5.430;2023-02-28T14:44:23;1.85;;;1.55;;
44189;SDS011;29856;52.144;5.430;2023-02-28T14:46:53;1.90;;;1.70;;
44189;SDS011;29856;52.144;5.430;2023-02-28T14:49:30;1.63;;;1.40;;
44189;SDS011;29856;52.144;5.430;2023-02-28T14:52:03;2.05;;;1.40;;
44189;SDS011;29856;52.144;5.430;2023-02-28T14:54:32;3.75;;;2.00;;
44189;SDS011;29856;52.144;5.430;2023-02-28T14:56:57;2.42;;;1.65;;
44189;SDS011;29856;52.144;5.430;2023-02-28T14:59:29;2.45;;;1.45;;
44189;SDS011;29856;52.144;5.430;2023-02-28T15:07:19;3.22;;;1.60;;
44189;SDS011;29856;52.144;5.430;2023-02-28T15:09:44;2.22;;;1.50;;
44189;SDS011;29856;52.144;5.430;2023-02-28T15:12:13;4.63;;;1.80;;
44189;SDS011;29856;52.144;5.430;2023-02-28T15:14:41;2.40;;;1.52;;
44189;SDS011;29856;52.144;5.430;2023-02-28T15:17:17;1.65;;;1.50;;
44189;SDS011;29856;52.144;5.430;2023-02-28T15:19:48;1.83;;;1.63;;
44189;SDS011;29856;52.144;5.430;2023-02-28T15:22:17;3.22;;;1.55;;
44189;SDS011;29856;52.144;5.430;2023-02-28T15:24:53;2.33;;;1.60;;
44189;SDS011;29856;52.144;5.430;2023-02-28T15:29:55;3.30;;;1.90;;
44189;SDS011;29856;52.144;5.430;2023-02-28T15:32:24;5.72;;;1.80;;
44189;SDS011;29856;52.144;5.430;2023-02-28T15:34:59;5.30;;;2.22;;
44189;SDS011;29856;52.144;5.430;2023-02-28T15:37:46;3.88;;;2.00;;
44189;SDS011;29856;52.144;5.430;2023-02-28T15:43:24;3.22;;;1.50;;
44189;SDS011;29856;52.144;5.430;2023-02-28T15:46:03;2.53;;;1.67;;
44189;SDS011;29856;52.144;5.430;2023-02-28T15:48:38;3.92;;;1.55;;
44189;SDS011;29856;52.144;5.430;2023-02-28T15:51:20;4.93;;;1.75;;
44189;SDS011;29856;52.144;5.430;2023-02-28T15:53:51;3.15;;;1.73;;
44189;SDS011;29856;52.144;5.430;2023-02-28T15:56:28;7.43;;;2.40;;
44189;SDS011;29856;52.144;5.430;2023-02-28T15:58:56;2.78;;;1.80;;
44189;SDS011;29856;52.144;5.430;2023-02-28T16:01:27;2.35;;;1.73;;
44189;SDS011;29856;52.144;5.430;2023-02-28T16:03:54;3.85;;;1.60;;
44189;SDS011;29856;52.144;5.430;2023-02-28T16:09:15;3.67;;;1.50;;
44189;SDS011;29856;52.144;5.430;2023-02-28T16:11:48;4.38;;;2.30;;
44189;SDS011;29856;52.144;5.430;2023-02-28T16:14:16;2.78;;;1.73;;
44189;SDS011;29856;52.144;5.430;2023-02-28T16:16:48;2.45;;;1.30;;
44189;SDS011;29856;52.144;5.430;2023-02-28T16:19:15;3.25;;;1.90;;
44189;SDS011;29856;52.144;5.430;2023-02-28T16:21:40;2.30;;;1.35;;
44189;SDS011;29856;52.144;5.430;2023-02-28T16:24:06;3.08;;;1.80;;
44189;SDS011;29856;52.144;5.430;2023-02-28T16:26:32;1.92;;;1.25;;
44189;SDS011;29856;52.144;5.430;2023-02-28T16:28:58;4.82;;;1.65;;
44189;SDS011;29856;52.144;5.430;2023-02-28T16:31:23;3.17;;;1.58;;
44189;SDS011;29856;52.144;5.430;2023-02-28T16:33:49;2.38;;;1.80;;
44189;SDS011;29856;52.144;5.430;2023-02-28T16:36:19;3.00;;;1.70;;
44189;SDS011;29856;52.144;5.430;2023-02-28T16:38:46;5.45;;;1.80;;
44189;SDS011;29856;52.144;5.430;2023-02-28T16:41:12;5.18;;;1.73;;
44189;SDS011;29856;52.144;5.430;2023-02-28T16:43:43;4.03;;;1.70;;
44189;SDS011;29856;52.144;5.430;2023-02-28T16:46:10;2.95;;;1.60;;
44189;SDS011;29856;52.144;5.430;2023-02-28T16:48:36;4.53;;;2.10;;
44189;SDS011;29856;52.144;5.430;2023-02-28T16:51:02;3.03;;;1.80;;
44189;SDS011;29856;52.144;5.430;2023-02-28T16:53:27;2.63;;;1.90;;
44189;SDS011;29856;52.144;5.430;2023-02-28T16:55:53;4.22;;;1.92;;
44189;SDS011;29856;52.144;5.430;2023-02-28T16:58:18;3.70;;;2.17;;
44189;SDS011;29856;52.144;5.430;2023-02-28T17:00:44;7.07;;;2.55;;
44189;SDS011;29856;52.144;5.430;2023-02-28T17:06:04;6.13;;;2.30;;
44189;SDS011;29856;52.144;5.430;2023-02-28T17:08:31;5.55;;;1.80;;
44189;SDS011;29856;52.144;5.430;2023-02-28T17:10:56;2.97;;;2.30;;
44189;SDS011;29856;52.144;5.430;2023-02-28T17:13:22;3.10;;;1.83;;
44189;SDS011;29856;52.144;5.430;2023-02-28T17:15:48;4.43;;;2.53;;
44189;SDS011;29856;52.144;5.430;2023-02-28T17:18:13;5.97;;;2.80;;